createdAt,value
2018-05-10T00:00:05.393Z,37.27
2018-05-10T00:01:08.692Z,36.70
2018-05-10T00:02:12.039Z,36.93
2018-05-10T00:03:15.370Z,37.33
2018-05-10T00:04:18.732Z,37.73
2018-05-10T00:05:22.047Z,36.93
2018-05-10T00:06:25.414Z,37.20
2018-05-10T00:07:28.867Z,35.23
2018-05-10T00:08:32.202Z,38.37
2018-05-10T00:09:35.556Z,39.57
2018-05-10T00:10:38.884Z,37.20
2018-05-10T00:11:42.206Z,38.50
2018-05-10T00:12:45.546Z,37.53
2018-05-10T00:13:48.876Z,38.80
2018-05-10T00:14:52.195Z,39.03
2018-05-10T00:15:55.532Z,38.47
2018-05-10T00:16:58.855Z,38.37
2018-05-10T00:18:02.186Z,37.73
2018-05-10T00:19:05.608Z,38.53
2018-05-10T00:20:08.921Z,38.47
2018-05-10T00:21:12.247Z,36.63
2018-05-10T00:22:15.558Z,40.63
2018-05-10T00:23:18.903Z,37.07
2018-05-10T00:24:22.237Z,40.55
2018-05-10T00:25:25.773Z,41.40
2018-05-10T00:26:29.112Z,39.30
2018-05-10T00:27:32.445Z,38.50
2018-05-10T00:28:35.791Z,40.17
2018-05-10T00:29:39.096Z,41.97
2018-05-10T00:30:42.429Z,40.87
2018-05-10T00:31:45.762Z,41.73
2018-05-10T00:32:49.200Z,41.53
2018-05-10T00:33:52.547Z,40.60
2018-05-10T00:34:55.921Z,39.87
2018-05-10T00:35:59.243Z,39.47
2018-05-10T00:37:02.567Z,41.33
2018-05-10T00:38:05.890Z,42.47
2018-05-10T00:39:09.236Z,41.50
2018-05-10T00:40:12.563Z,42.30
2018-05-10T00:41:15.905Z,42.17
2018-05-10T00:42:19.215Z,44.17
2018-05-10T00:43:22.543Z,41.67
2018-05-10T00:44:25.894Z,39.70
2018-05-10T00:45:29.232Z,39.20
2018-05-10T00:46:32.565Z,40.80
2018-05-10T00:47:35.895Z,38.27
2018-05-10T00:48:39.220Z,38.72
2018-05-10T00:49:42.575Z,40.07
2018-05-10T00:50:45.913Z,39.37
2018-05-10T00:51:49.238Z,38.50
2018-05-10T00:52:52.549Z,38.10
2018-05-10T00:53:55.883Z,39.97
2018-05-10T00:54:59.255Z,39.20
2018-05-10T00:56:02.547Z,38.57
2018-05-10T00:57:05.899Z,38.42
2018-05-10T00:58:09.225Z,39.20
2018-05-10T00:59:12.535Z,38.60
2018-05-10T01:00:15.877Z,37.77
2018-05-10T01:01:19.238Z,39.70
2018-05-10T01:02:22.550Z,38.33
2018-05-10T01:03:25.918Z,37.73
2018-05-10T01:04:29.238Z,38.25
2018-05-10T01:05:32.588Z,38.47
2018-05-10T01:06:35.929Z,37.67
2018-05-10T01:07:39.326Z,37.97
2018-05-10T01:08:42.656Z,35.93
2018-05-10T01:09:45.972Z,35.80
2018-05-10T01:10:49.319Z,36.83
2018-05-10T01:11:52.667Z,35.60
2018-05-10T01:12:56.003Z,35.30
2018-05-10T01:13:59.329Z,34.50
2018-05-10T01:15:02.647Z,36.20
2018-05-10T01:16:05.995Z,34.33
2018-05-10T01:17:09.329Z,32.70
2018-05-10T01:18:12.643Z,33.20
2018-05-10T01:19:16.003Z,33.03
2018-05-10T01:20:19.388Z,33.30
2018-05-10T01:21:22.766Z,33.17
2018-05-10T01:22:26.099Z,34.53
2018-05-10T01:23:29.441Z,35.10
2018-05-10T01:24:32.767Z,33.37
2018-05-10T01:25:36.365Z,33.33
2018-05-10T01:26:44.927Z,31.30
2018-05-10T01:27:53.596Z,33.70
2018-05-10T01:29:02.171Z,33.78
2018-05-10T01:30:11.016Z,32.33
2018-05-10T01:31:14.312Z,32.20
2018-05-10T01:32:17.670Z,32.70
2018-05-10T01:33:21.018Z,33.07
2018-05-10T01:34:24.346Z,33.00
2018-05-10T01:35:39.696Z,33.00
2018-05-10T01:36:43.003Z,32.15
2018-05-10T01:37:46.359Z,31.67
2018-05-10T01:38:49.696Z,32.85
2018-05-10T01:39:53.018Z,31.87
2018-05-10T01:40:56.354Z,31.53
2018-05-10T01:41:59.667Z,30.50
2018-05-10T01:43:03.023Z,30.37
2018-05-10T01:44:06.356Z,32.63
2018-05-10T01:45:09.670Z,31.50
2018-05-10T01:46:13.003Z,30.15
2018-05-10T01:47:16.355Z,31.58
2018-05-10T01:48:19.712Z,26.77
2018-05-10T01:49:23.042Z,28.90
2018-05-10T01:50:26.399Z,27.67
2018-05-10T01:51:29.744Z,29.92
2018-05-10T01:52:33.087Z,28.10
2018-05-10T01:53:36.443Z,27.75
2018-05-10T01:54:39.773Z,26.95
2018-05-10T01:55:43.100Z,25.00
2018-05-10T01:56:46.422Z,26.65
2018-05-10T01:57:49.769Z,24.83
2018-05-10T01:58:53.132Z,25.98
2018-05-10T01:59:56.466Z,24.75
2018-05-10T02:00:59.785Z,23.87
2018-05-10T02:02:03.120Z,24.05
2018-05-10T02:03:06.451Z,23.85
2018-05-10T02:04:09.819Z,21.87
2018-05-10T02:05:13.150Z,22.02
2018-05-10T02:06:16.485Z,23.15
2018-05-10T02:07:19.799Z,21.15
2018-05-10T02:08:23.235Z,21.40
2018-05-10T02:09:26.579Z,20.80
2018-05-10T02:10:29.969Z,20.58
2018-05-10T02:11:33.296Z,19.60
2018-05-10T02:12:36.623Z,19.70
2018-05-10T02:13:39.971Z,20.25
2018-05-10T02:14:43.347Z,19.33
2018-05-10T02:15:46.669Z,16.77
2018-05-10T02:16:50.331Z,16.48
2018-05-10T02:17:53.639Z,15.32
2018-05-10T02:18:56.962Z,14.65
2018-05-10T02:20:00.330Z,16.30
2018-05-10T02:21:03.659Z,14.05
2018-05-10T02:22:07.000Z,12.37
2018-05-10T02:23:10.341Z,11.05
2018-05-10T02:24:13.675Z,12.00
2018-05-10T02:25:17.075Z,11.88
2018-05-10T02:26:20.419Z,11.80
2018-05-10T02:27:23.744Z,11.77
2018-05-10T02:28:27.080Z,11.15
2018-05-10T02:29:30.402Z,12.05
2018-05-10T02:30:33.751Z,12.20
2018-05-10T02:31:37.087Z,10.02
2018-05-10T02:32:40.422Z,12.48
2018-05-10T02:33:43.749Z,12.52
2018-05-10T02:34:47.081Z,12.05
2018-05-10T02:35:50.413Z,11.55
2018-05-10T02:36:53.743Z,12.25
2018-05-10T02:37:57.107Z,13.30
2018-05-10T02:39:00.427Z,12.05
2018-05-10T02:40:03.792Z,12.18
2018-05-10T02:41:07.150Z,13.60
2018-05-10T02:42:10.499Z,13.05
2018-05-10T02:43:13.814Z,13.70
2018-05-10T02:44:17.158Z,13.90
2018-05-10T02:45:20.480Z,12.70
2018-05-10T02:46:23.828Z,13.95
2018-05-10T02:47:27.168Z,13.35
2018-05-10T02:48:30.787Z,13.80
2018-05-10T02:49:34.184Z,14.45
2018-05-10T02:50:37.499Z,13.75
2018-05-10T02:51:40.957Z,13.30
2018-05-10T02:52:44.263Z,15.45
2018-05-10T02:53:47.598Z,14.50
2018-05-10T02:54:50.906Z,15.15
2018-05-10T02:55:54.247Z,15.00
2018-05-10T02:56:57.615Z,14.18
2018-05-10T02:58:00.951Z,15.05
2018-05-10T02:59:04.290Z,16.20
2018-05-10T03:00:07.692Z,18.40
2018-05-10T03:01:11.005Z,16.08
2018-05-10T03:02:14.375Z,17.40
2018-05-10T03:03:17.707Z,19.52
2018-05-10T03:04:21.034Z,20.90
2018-05-10T03:05:24.379Z,23.30
2018-05-10T03:06:27.695Z,24.23
2018-05-10T03:07:31.046Z,25.37
2018-05-10T03:08:34.699Z,24.17
2018-05-10T03:09:38.048Z,25.80
2018-05-10T03:10:41.378Z,26.58
2018-05-10T03:11:44.712Z,29.05
2018-05-10T03:12:48.079Z,29.37
2018-05-10T03:13:51.386Z,28.83
2018-05-10T03:14:54.706Z,28.20
2018-05-10T03:15:58.049Z,30.88
2018-05-10T03:17:01.375Z,30.88
2018-05-10T03:18:04.722Z,31.10
2018-05-10T03:19:08.040Z,32.10
2018-05-10T03:20:11.359Z,31.20
2018-05-10T03:21:14.673Z,33.45
2018-05-10T03:22:18.000Z,34.63
2018-05-10T03:23:21.351Z,36.25
2018-05-10T03:24:24.666Z,35.47
2018-05-10T03:25:27.986Z,38.22
2018-05-10T03:26:31.471Z,35.00
2018-05-10T03:27:34.810Z,38.55
2018-05-10T03:28:38.161Z,37.30
2018-05-10T03:29:41.492Z,37.13
2018-05-10T03:30:44.812Z,35.08
2018-05-10T03:31:48.127Z,35.53
2018-05-10T03:32:51.455Z,36.97
2018-05-10T03:33:54.801Z,36.33
2018-05-10T03:34:58.178Z,34.75
2018-05-10T03:36:01.502Z,35.40
2018-05-10T03:37:04.845Z,36.72
2018-05-10T03:38:08.171Z,36.40
2018-05-10T03:39:11.528Z,36.13
2018-05-10T03:40:14.859Z,37.88
2018-05-10T03:41:18.170Z,35.72
2018-05-10T03:42:21.519Z,36.08
2018-05-10T03:43:24.858Z,36.90
2018-05-10T03:44:28.207Z,34.28
2018-05-10T03:45:31.539Z,35.35
2018-05-10T03:46:34.851Z,35.95
2018-05-10T03:47:38.194Z,34.90
2018-05-10T03:48:41.523Z,36.90
2018-05-10T03:49:44.868Z,35.80
2018-05-10T03:50:48.199Z,34.65
2018-05-10T03:51:51.551Z,34.40
2018-05-10T03:52:54.858Z,33.17
2018-05-10T03:53:58.178Z,34.58
2018-05-10T03:55:01.531Z,32.80
2018-05-10T03:56:04.843Z,34.72
2018-05-10T03:57:08.165Z,32.72
2018-05-10T03:58:11.482Z,34.20
2018-05-10T03:59:14.795Z,32.70
2018-05-10T04:00:18.186Z,34.78
2018-05-10T04:01:21.526Z,33.13
2018-05-10T04:02:36.550Z,32.47
2018-05-10T04:05:29.448Z,31.95
2018-05-10T04:06:44.586Z,33.50
2018-05-10T04:07:59.783Z,32.33
2018-05-10T04:09:16.001Z,33.70
2018-05-10T04:10:31.099Z,30.58
2018-05-10T04:11:34.434Z,32.10
2018-05-10T04:12:37.779Z,30.75
2018-05-10T04:13:41.104Z,30.00
2018-05-10T04:14:44.503Z,30.83
2018-05-10T04:15:47.851Z,31.98
2018-05-10T04:16:51.202Z,31.60
2018-05-10T04:17:54.514Z,32.08
2018-05-10T04:18:57.836Z,30.75
2018-05-10T04:20:01.163Z,32.80
2018-05-10T04:21:04.515Z,32.70
2018-05-10T04:22:07.839Z,31.08
2018-05-10T04:23:11.187Z,29.27
2018-05-10T04:24:14.546Z,30.48
2018-05-10T04:25:17.915Z,31.42
2018-05-10T04:26:21.262Z,31.73
2018-05-10T04:27:24.584Z,30.60
2018-05-10T04:28:27.898Z,29.98
2018-05-10T04:29:31.242Z,29.75
2018-05-10T04:30:34.581Z,28.02
2018-05-10T04:31:37.947Z,31.70
2018-05-10T04:32:41.267Z,31.00
2018-05-10T04:33:44.585Z,30.42
2018-05-10T04:34:47.906Z,30.30
2018-05-10T04:35:51.232Z,29.48
2018-05-10T04:36:54.590Z,27.95
2018-05-10T04:37:57.909Z,29.08
2018-05-10T04:39:01.234Z,28.00
2018-05-10T04:40:04.566Z,24.98
2018-05-10T04:41:07.891Z,27.45
2018-05-10T04:42:11.252Z,27.67
2018-05-10T04:43:14.583Z,24.75
2018-05-10T04:44:17.954Z,24.40
2018-05-10T04:45:21.258Z,23.10
2018-05-10T04:46:24.609Z,23.00
2018-05-10T04:47:27.935Z,22.50
2018-05-10T04:48:31.275Z,20.83
2018-05-10T04:49:35.203Z,20.40
2018-05-10T04:50:38.534Z,18.70
2018-05-10T04:51:41.866Z,20.70
2018-05-10T04:52:45.224Z,19.10
2018-05-10T04:53:48.806Z,18.25
2018-05-10T04:54:52.241Z,16.30
2018-05-10T04:55:55.493Z,18.05
2018-05-10T04:56:58.798Z,18.60
2018-05-10T04:58:02.155Z,17.87
2018-05-10T04:59:05.470Z,17.65
2018-05-10T05:00:08.792Z,18.27
2018-05-10T05:01:12.106Z,15.52
2018-05-10T05:02:15.452Z,16.02
2018-05-10T05:03:18.875Z,16.20
2018-05-10T05:04:22.158Z,14.35
2018-05-10T05:05:25.471Z,15.15
2018-05-10T05:06:28.783Z,15.45
2018-05-10T05:07:32.107Z,17.02
2018-05-10T05:08:35.449Z,16.37
2018-05-10T05:09:39.294Z,15.32
2018-05-10T05:10:42.615Z,15.00
2018-05-10T05:11:45.956Z,15.02
2018-05-10T05:12:49.398Z,15.65
2018-05-10T05:13:52.735Z,15.02
2018-05-10T05:14:56.051Z,15.48
2018-05-10T05:15:59.386Z,14.23
2018-05-10T05:17:02.711Z,15.23
2018-05-10T05:18:06.032Z,14.35
2018-05-10T05:19:09.395Z,13.27
2018-05-10T05:20:12.755Z,14.18
2018-05-10T05:21:16.078Z,14.23
2018-05-10T05:22:19.507Z,13.27
2018-05-10T05:23:22.811Z,13.88
2018-05-10T05:24:26.160Z,12.32
2018-05-10T05:25:29.489Z,12.60
2018-05-10T05:26:32.815Z,12.90
2018-05-10T05:27:36.141Z,12.15
2018-05-10T05:28:39.454Z,12.00
2018-05-10T05:29:42.801Z,10.95
2018-05-10T05:30:46.128Z,10.98
2018-05-10T05:31:49.451Z,10.88
2018-05-10T05:32:52.762Z,9.80
2018-05-10T05:33:56.100Z,9.65
2018-05-10T05:34:59.432Z,10.05
2018-05-10T05:36:02.746Z,8.30
2018-05-10T05:37:06.137Z,10.02
2018-05-10T05:38:09.458Z,9.13
2018-05-10T05:39:12.778Z,9.88
2018-05-10T05:40:16.107Z,8.10
2018-05-10T05:41:19.506Z,9.27
2018-05-10T05:42:22.735Z,8.40
2018-05-10T05:43:26.074Z,9.10
2018-05-10T05:44:29.392Z,8.38
2018-05-10T05:45:32.739Z,8.15
2018-05-10T05:46:36.064Z,8.50
2018-05-10T05:47:39.398Z,8.27
2018-05-10T05:48:42.734Z,9.13
2018-05-10T05:49:46.075Z,8.05
2018-05-10T05:50:49.407Z,8.35
2018-05-10T05:51:52.751Z,9.43
2018-05-10T05:52:56.080Z,9.45
2018-05-10T05:53:59.409Z,8.65
2018-05-10T05:55:02.759Z,8.35
2018-05-10T05:56:06.261Z,9.10
2018-05-10T05:57:09.565Z,8.70
2018-05-10T05:58:12.895Z,9.25
2018-05-10T05:59:16.209Z,9.63
2018-05-10T06:00:19.540Z,9.23
2018-05-10T06:01:22.907Z,12.05
2018-05-10T06:02:26.238Z,11.85
2018-05-10T06:03:29.546Z,13.30
2018-05-10T06:04:32.870Z,12.25
2018-05-10T06:05:36.191Z,12.70
2018-05-10T06:06:39.807Z,12.70
2018-05-10T06:07:43.132Z,12.65
2018-05-10T06:08:46.503Z,12.52
2018-05-10T06:09:49.861Z,12.40
2018-05-10T06:10:53.170Z,12.48
2018-05-10T06:11:56.547Z,12.30
2018-05-10T06:12:59.903Z,12.07
2018-05-10T06:14:03.213Z,12.73
2018-05-10T06:15:06.576Z,11.82
2018-05-10T06:16:10.049Z,11.95
2018-05-10T06:17:13.388Z,11.05
2018-05-10T06:18:16.759Z,12.30
2018-05-10T06:19:20.319Z,12.45
2018-05-10T06:20:23.667Z,13.10
2018-05-10T06:21:26.994Z,15.00
2018-05-10T06:22:30.375Z,14.77
2018-05-10T06:23:33.706Z,14.25
2018-05-10T06:24:37.042Z,14.30
2018-05-10T06:25:40.351Z,14.00
2018-05-10T06:26:43.670Z,14.15
2018-05-10T06:27:47.015Z,14.98
2018-05-10T06:28:50.339Z,16.83
2018-05-10T06:29:53.670Z,16.73
2018-05-10T06:30:56.994Z,15.70
2018-05-10T06:32:00.335Z,15.63
2018-05-10T06:33:03.740Z,15.52
2018-05-10T06:34:07.094Z,16.42
2018-05-10T06:35:10.426Z,16.48
2018-05-10T06:36:13.810Z,15.73
2018-05-10T06:37:17.145Z,15.85
2018-05-10T06:38:20.483Z,16.20
2018-05-10T06:39:23.812Z,16.80
2018-05-10T06:40:27.153Z,14.65
2018-05-10T06:41:30.559Z,16.73
2018-05-10T06:42:33.910Z,16.85
2018-05-10T06:43:37.298Z,17.15
2018-05-10T06:44:40.614Z,16.80
2018-05-10T06:45:43.935Z,16.10
2018-05-10T06:46:47.336Z,15.75
2018-05-10T06:47:50.623Z,16.77
2018-05-10T06:48:54.012Z,16.65
2018-05-10T06:49:57.321Z,14.57
2018-05-10T06:51:00.690Z,15.43
2018-05-10T06:52:04.046Z,14.02
2018-05-10T06:53:07.348Z,14.75
2018-05-10T06:54:10.677Z,15.82
2018-05-10T06:55:14.001Z,14.15
2018-05-10T06:56:17.326Z,14.43
2018-05-10T06:57:20.656Z,13.73
2018-05-10T06:58:24.091Z,14.57
2018-05-10T06:59:28.172Z,14.13
2018-05-10T07:00:31.614Z,16.60
2018-05-10T07:01:34.992Z,14.75
2018-05-10T07:02:38.319Z,14.87
2018-05-10T07:03:41.649Z,14.52
2018-05-10T07:04:45.007Z,14.50
2018-05-10T07:05:48.350Z,14.40
2018-05-10T07:06:51.673Z,14.93
2018-05-10T07:07:54.987Z,15.38
2018-05-10T07:08:58.322Z,14.70
2018-05-10T07:10:02.042Z,14.80
2018-05-10T07:11:05.287Z,15.77
2018-05-10T07:12:08.631Z,15.80
2018-05-10T07:13:12.120Z,16.77
2018-05-10T07:14:15.450Z,17.87
2018-05-10T07:15:18.785Z,16.15
2018-05-10T07:16:22.139Z,16.15
2018-05-10T07:17:25.458Z,16.30
2018-05-10T07:18:28.817Z,16.27
2018-05-10T07:19:32.128Z,15.77
2018-05-10T07:20:35.494Z,14.57
2018-05-10T07:21:38.814Z,14.25
2018-05-10T07:22:42.160Z,14.73
2018-05-10T07:23:45.480Z,15.00
2018-05-10T07:24:48.810Z,15.48
2018-05-10T07:25:52.154Z,14.77
2018-05-10T07:26:55.467Z,13.77
2018-05-10T07:27:58.809Z,13.93
2018-05-10T07:29:02.154Z,13.50
2018-05-10T07:30:05.491Z,13.57
2018-05-10T07:31:08.850Z,14.85
2018-05-10T07:32:12.180Z,14.90
2018-05-10T07:33:15.542Z,15.02
2018-05-10T07:34:18.887Z,13.68
2018-05-10T07:35:22.264Z,13.90
2018-05-10T07:36:25.609Z,13.73
2018-05-10T07:37:28.939Z,13.52
2018-05-10T07:38:32.310Z,11.43
2018-05-10T07:39:35.641Z,10.68
2018-05-10T07:40:38.991Z,9.73
2018-05-10T07:41:42.347Z,11.30
2018-05-10T07:42:45.742Z,11.02
2018-05-10T07:43:49.121Z,9.93
2018-05-10T07:44:52.467Z,10.02
2018-05-10T07:45:55.805Z,9.60
2018-05-10T07:46:59.191Z,8.38
2018-05-10T07:48:02.521Z,8.10
2018-05-10T07:49:05.901Z,9.13
2018-05-10T07:50:09.214Z,9.10
2018-05-10T07:51:12.543Z,8.85
2018-05-10T07:52:15.905Z,9.63
2018-05-10T07:53:19.212Z,8.63
2018-05-10T07:54:22.535Z,8.07
2018-05-10T07:55:25.848Z,8.33
2018-05-10T07:56:29.166Z,8.30
2018-05-10T07:57:32.517Z,7.97
2018-05-10T07:58:35.842Z,7.30
2018-05-10T07:59:39.163Z,8.90
2018-05-10T08:00:42.488Z,9.53
2018-05-10T08:01:45.798Z,8.50
2018-05-10T08:02:49.155Z,10.50
2018-05-10T08:03:52.466Z,11.63
2018-05-10T08:04:55.811Z,11.20
2018-05-10T08:05:59.139Z,12.83
2018-05-10T08:07:02.474Z,13.40
2018-05-10T08:08:05.807Z,14.47
2018-05-10T08:09:09.148Z,14.98
2018-05-10T08:10:12.592Z,15.00
2018-05-10T08:11:15.840Z,16.73
2018-05-10T08:12:19.184Z,15.83
2018-05-10T08:13:22.540Z,16.67
2018-05-10T08:14:25.867Z,18.00
2018-05-10T08:15:29.228Z,17.30
2018-05-10T08:16:32.549Z,18.87
2018-05-10T08:17:35.879Z,18.03
2018-05-10T08:18:39.265Z,18.42
2018-05-10T08:19:42.600Z,17.45
2018-05-10T08:20:45.940Z,15.00
2018-05-10T08:21:49.246Z,16.60
2018-05-10T08:22:52.584Z,14.75
2018-05-10T08:23:55.969Z,16.67
2018-05-10T08:24:59.292Z,18.65
2018-05-10T08:26:02.650Z,17.00
2018-05-10T08:27:05.971Z,17.03
2018-05-10T08:28:09.295Z,14.82
2018-05-10T08:29:12.671Z,14.35
2018-05-10T08:30:16.227Z,9.77
2018-05-10T08:31:19.506Z,9.20
2018-05-10T08:32:22.851Z,8.03
2018-05-10T08:33:26.225Z,8.20
2018-05-10T08:34:29.627Z,7.57
2018-05-10T08:35:32.960Z,7.10
2018-05-10T08:36:36.316Z,6.57
2018-05-10T08:37:39.614Z,7.45
2018-05-10T08:38:42.928Z,5.20
2018-05-10T08:39:46.271Z,5.00
2018-05-10T08:40:49.602Z,4.43
2018-05-10T08:41:52.963Z,6.10
2018-05-10T08:42:56.314Z,4.97
2018-05-10T08:43:59.768Z,4.90
2018-05-10T08:45:03.152Z,5.90
2018-05-10T08:46:06.504Z,5.40
2018-05-10T08:47:09.850Z,4.68
2018-05-10T08:48:13.166Z,3.97
2018-05-10T08:49:16.471Z,5.13
2018-05-10T08:50:19.815Z,4.40
2018-05-10T08:51:23.130Z,4.32
2018-05-10T08:52:26.442Z,5.43
2018-05-10T08:53:29.748Z,4.30
2018-05-10T08:54:33.071Z,4.40
2018-05-10T08:55:36.439Z,4.47
2018-05-10T08:56:39.999Z,4.00
2018-05-10T08:57:43.326Z,4.15
2018-05-10T08:58:46.637Z,3.90
2018-05-10T08:59:49.982Z,4.47
2018-05-10T09:00:53.299Z,4.55
2018-05-10T09:01:56.619Z,5.10
2018-05-10T09:02:59.944Z,4.70
2018-05-10T09:04:03.359Z,4.77
2018-05-10T09:05:06.680Z,5.22
2018-05-10T09:06:10.193Z,4.50
2018-05-10T09:07:13.495Z,4.97
2018-05-10T09:08:17.053Z,4.72
2018-05-10T09:09:20.375Z,4.67
2018-05-10T09:10:23.923Z,5.20
2018-05-10T09:11:27.290Z,5.75
2018-05-10T09:12:30.595Z,4.87
2018-05-10T09:13:33.932Z,4.80
2018-05-10T09:14:37.404Z,4.57
2018-05-10T09:15:40.712Z,3.70
2018-05-10T09:16:44.052Z,4.50
2018-05-10T09:17:47.374Z,4.35
2018-05-10T09:18:50.783Z,3.53
2018-05-10T09:19:54.084Z,3.00
2018-05-10T09:20:57.451Z,3.07
2018-05-10T09:22:00.982Z,3.20
2018-05-10T09:23:04.291Z,2.50
2018-05-10T09:24:07.589Z,2.50
2018-05-10T09:25:10.893Z,3.33
2018-05-10T09:26:14.195Z,2.90
2018-05-10T09:27:17.584Z,2.43
2018-05-10T09:28:20.906Z,2.43
2018-05-10T09:29:24.217Z,3.10
2018-05-10T09:30:27.518Z,3.30
2018-05-10T09:31:30.863Z,2.57
2018-05-10T09:32:34.209Z,3.20
2018-05-10T09:33:37.517Z,4.43
2018-05-10T09:34:40.838Z,3.00
2018-05-10T09:35:44.165Z,3.57
2018-05-10T09:36:47.468Z,3.47
2018-05-10T09:37:50.828Z,3.30
2018-05-10T09:38:54.136Z,3.40
2018-05-10T09:39:57.440Z,3.30
2018-05-10T09:41:00.775Z,2.87
2018-05-10T09:42:04.088Z,2.95
2018-05-10T09:43:07.429Z,4.00
2018-05-10T09:44:10.756Z,3.03
2018-05-10T09:45:14.088Z,2.53
2018-05-10T09:46:17.516Z,2.83
2018-05-10T09:47:20.746Z,2.57
2018-05-10T09:48:24.139Z,3.30
2018-05-10T09:49:28.359Z,3.37
2018-05-10T09:50:31.667Z,3.10
2018-05-10T09:51:35.006Z,3.00
2018-05-10T09:52:38.355Z,2.50
2018-05-10T09:53:41.726Z,2.50
2018-05-10T09:54:45.035Z,3.07
2018-05-10T09:55:48.358Z,3.23
2018-05-10T09:56:51.732Z,3.30
2018-05-10T09:57:55.032Z,3.47
2018-05-10T09:58:58.399Z,3.17
2018-05-10T10:00:01.702Z,3.73
2018-05-10T10:01:05.037Z,3.40
2018-05-10T10:02:08.357Z,3.50
2018-05-10T10:03:11.660Z,3.30
2018-05-10T10:04:15.013Z,4.20
2018-05-10T10:05:18.306Z,3.67
2018-05-10T10:06:21.632Z,4.20
2018-05-10T10:07:24.982Z,3.20
2018-05-10T10:08:28.324Z,3.73
2018-05-10T10:09:31.671Z,3.23
2018-05-10T10:10:35.260Z,4.00
2018-05-10T10:11:38.567Z,4.50
2018-05-10T10:12:41.871Z,3.23
2018-05-10T10:13:45.196Z,3.67
2018-05-10T10:14:48.532Z,4.00
2018-05-10T10:15:51.835Z,3.80
2018-05-10T10:16:55.156Z,4.60
2018-05-10T10:17:58.578Z,4.07
2018-05-10T10:19:01.937Z,5.18
2018-05-10T10:20:05.318Z,4.80
2018-05-10T10:21:08.618Z,5.10
2018-05-10T10:22:11.952Z,6.60
2018-05-10T10:23:15.264Z,4.97
2018-05-10T10:24:18.591Z,5.50
2018-05-10T10:25:21.935Z,4.90
2018-05-10T10:26:25.258Z,5.00
2018-05-10T10:27:28.660Z,5.10
2018-05-10T10:28:31.930Z,6.17
2018-05-10T10:29:35.254Z,4.40
2018-05-10T10:30:38.693Z,5.90
2018-05-10T10:31:42.008Z,5.53
2018-05-10T10:32:45.321Z,5.47
2018-05-10T10:33:48.661Z,5.87
2018-05-10T10:34:51.970Z,5.40
2018-05-10T10:35:55.319Z,8.10
2018-05-10T10:36:58.606Z,6.33
2018-05-10T10:38:02.075Z,6.47
2018-05-10T10:39:05.605Z,5.70
2018-05-10T10:40:08.978Z,6.63
2018-05-10T10:41:12.262Z,7.23
2018-05-10T10:42:15.578Z,6.40
2018-05-10T10:43:18.911Z,6.77
2018-05-10T10:44:22.219Z,7.60
2018-05-10T10:45:25.581Z,8.20
2018-05-10T10:46:28.922Z,8.20
2018-05-10T10:47:32.256Z,8.73
2018-05-10T10:48:35.553Z,8.83
2018-05-10T10:49:38.888Z,9.27
2018-05-10T10:50:42.196Z,9.00
2018-05-10T10:51:45.564Z,9.67
2018-05-10T10:52:49.470Z,8.70
2018-05-10T10:53:52.815Z,8.93
2018-05-10T10:54:56.083Z,12.23
2018-05-10T10:55:59.446Z,12.40
2018-05-10T10:57:02.822Z,13.38
2018-05-10T10:58:06.147Z,14.30
2018-05-10T10:59:09.491Z,14.80
2018-05-10T11:00:12.828Z,13.00
2018-05-10T11:01:16.194Z,14.40
2018-05-10T11:02:19.548Z,14.87
2018-05-10T11:03:22.892Z,16.70
2018-05-10T11:04:26.202Z,14.87
2018-05-10T11:05:29.610Z,15.23
2018-05-10T11:06:32.947Z,15.65
2018-05-10T11:07:37.582Z,15.85
2018-05-10T11:08:40.930Z,16.57
2018-05-10T11:09:44.275Z,18.05
2018-05-10T11:10:48.527Z,17.80
2018-05-10T11:11:51.849Z,17.75
2018-05-10T11:12:55.266Z,17.87
2018-05-10T11:13:58.589Z,19.48
2018-05-10T11:15:01.907Z,17.92
2018-05-10T11:16:05.230Z,19.62
2018-05-10T11:17:08.567Z,17.62
2018-05-10T11:18:11.924Z,19.23
2018-05-10T11:19:15.245Z,19.37
2018-05-10T11:20:18.588Z,20.17
2018-05-10T11:21:21.913Z,19.48
2018-05-10T11:22:25.239Z,19.60
2018-05-10T11:23:28.587Z,19.20
2018-05-10T11:24:31.921Z,19.73
2018-05-10T11:25:35.250Z,18.30
2018-05-10T11:26:38.570Z,18.67
2018-05-10T11:27:41.919Z,20.23
2018-05-10T11:28:45.272Z,18.75
2018-05-10T11:29:48.633Z,20.33
2018-05-10T11:30:51.984Z,19.65
2018-05-10T11:31:55.403Z,18.77
2018-05-10T11:32:58.841Z,18.52
2018-05-10T11:34:02.337Z,18.65
2018-05-10T11:35:05.979Z,18.58
2018-05-10T11:36:09.372Z,19.70
2018-05-10T11:37:12.665Z,18.20
2018-05-10T11:38:16.055Z,18.87
2018-05-10T11:39:19.427Z,18.75
2018-05-10T11:40:22.791Z,21.05
2018-05-10T11:41:26.135Z,21.23
2018-05-10T11:42:29.458Z,18.33
2018-05-10T11:43:32.787Z,20.30
2018-05-10T11:44:36.262Z,19.80
2018-05-10T11:45:39.492Z,18.67
2018-05-10T11:46:42.839Z,18.62
2018-05-10T11:47:46.162Z,17.92
2018-05-10T11:48:49.477Z,18.73
2018-05-10T11:49:52.839Z,16.90
2018-05-10T11:50:56.192Z,19.95
2018-05-10T11:51:59.542Z,19.50
2018-05-10T11:53:02.853Z,21.67
2018-05-10T11:54:06.195Z,19.48
2018-05-10T11:55:09.720Z,20.70
2018-05-10T11:56:13.026Z,21.20
2018-05-10T11:57:16.371Z,19.87
2018-05-10T11:58:19.708Z,19.70
2018-05-10T11:59:23.084Z,19.98
2018-05-10T12:00:26.464Z,19.40
2018-05-10T12:01:29.856Z,17.65
2018-05-10T12:02:33.257Z,19.15
2018-05-10T12:03:36.569Z,19.45
2018-05-10T12:04:39.914Z,19.95
2018-05-10T12:05:43.322Z,19.02
2018-05-10T12:06:46.655Z,19.62
2018-05-10T12:07:50.291Z,18.23
2018-05-10T12:08:53.632Z,19.37
2018-05-10T12:09:57.294Z,19.08
2018-05-10T12:11:00.791Z,20.10
2018-05-10T12:12:04.168Z,19.42
2018-05-10T12:13:07.496Z,19.23
2018-05-10T12:14:10.848Z,20.20
2018-05-10T12:15:14.199Z,19.55
2018-05-10T12:16:17.610Z,17.58
2018-05-10T12:17:20.963Z,18.92
2018-05-10T12:18:24.299Z,18.12
2018-05-10T12:19:27.806Z,19.37
2018-05-10T12:20:31.258Z,19.50
2018-05-10T12:21:34.550Z,20.12
2018-05-10T12:22:37.891Z,19.37
2018-05-10T12:23:41.211Z,19.40
2018-05-10T12:24:44.548Z,20.30
2018-05-10T12:25:47.883Z,18.20
2018-05-10T12:26:51.258Z,18.23
2018-05-10T12:27:54.593Z,19.62
2018-05-10T12:28:57.932Z,18.27
2018-05-10T12:30:01.442Z,19.12
2018-05-10T12:31:05.023Z,18.33
2018-05-10T12:32:08.353Z,19.23
2018-05-10T12:33:11.686Z,19.40
2018-05-10T12:34:15.014Z,20.85
2018-05-10T12:35:18.336Z,18.90
2018-05-10T12:36:21.674Z,19.55
2018-05-10T12:37:25.101Z,19.55
2018-05-10T12:38:28.451Z,19.90
2018-05-10T12:39:31.885Z,19.05
2018-05-10T12:40:35.343Z,21.00
2018-05-10T12:41:38.670Z,19.30
2018-05-10T12:42:42.101Z,20.58
2018-05-10T12:43:45.424Z,19.55
2018-05-10T12:44:48.743Z,21.35
2018-05-10T12:45:52.072Z,21.20
2018-05-10T12:46:55.397Z,20.48
2018-05-10T12:47:59.097Z,20.50
2018-05-10T12:49:02.441Z,20.10
2018-05-10T12:50:05.789Z,20.12
2018-05-10T12:51:09.124Z,20.25
2018-05-10T12:52:12.470Z,18.83
2018-05-10T12:53:15.906Z,19.80
2018-05-10T12:54:19.281Z,20.90
2018-05-10T12:55:22.617Z,18.58
2018-05-10T12:56:26.159Z,19.37
2018-05-10T12:57:29.332Z,20.23
2018-05-10T12:58:32.708Z,19.95
2018-05-10T12:59:36.071Z,20.90
2018-05-10T13:00:39.394Z,19.55
2018-05-10T13:01:42.830Z,18.52
2018-05-10T13:02:47.461Z,20.23
2018-05-10T13:03:51.368Z,20.98
2018-05-10T13:04:54.743Z,20.33
2018-05-10T13:05:58.090Z,19.75
2018-05-10T13:07:01.501Z,19.98
2018-05-10T13:08:04.813Z,20.48
2018-05-10T13:09:09.080Z,22.23
2018-05-10T13:10:12.455Z,20.17
2018-05-10T13:11:16.019Z,19.30
2018-05-10T13:12:19.366Z,20.00
2018-05-10T13:13:22.777Z,21.20
2018-05-10T13:14:26.059Z,20.17
2018-05-10T13:15:29.433Z,20.73
2018-05-10T13:16:32.838Z,21.85
2018-05-10T13:17:36.271Z,21.25
2018-05-10T13:18:39.622Z,21.42
2018-05-10T13:19:42.994Z,22.60
2018-05-10T13:20:46.363Z,22.17
2018-05-10T13:21:49.777Z,22.50
2018-05-10T13:22:53.048Z,21.70
2018-05-10T13:23:56.383Z,21.45
2018-05-10T13:24:59.852Z,21.15
2018-05-10T13:26:03.191Z,20.37
2018-05-10T13:27:06.520Z,21.65
2018-05-10T13:28:09.850Z,21.50
2018-05-10T13:29:13.191Z,23.17
2018-05-10T13:30:16.544Z,21.67
2018-05-10T13:31:19.861Z,23.83
2018-05-10T13:32:23.244Z,21.23
2018-05-10T13:33:26.587Z,21.95
2018-05-10T13:34:29.938Z,21.27
2018-05-10T13:35:33.384Z,22.00
2018-05-10T13:36:36.698Z,21.57
2018-05-10T13:37:40.040Z,21.73
2018-05-10T13:38:43.435Z,22.10
2018-05-10T13:39:46.944Z,21.30
2018-05-10T13:40:50.319Z,21.85
2018-05-10T13:41:53.657Z,20.62
2018-05-10T13:42:56.999Z,21.08
2018-05-10T13:44:00.336Z,22.47
2018-05-10T13:45:03.670Z,21.95